sensor_id;sensor_type;location;lat;lon;timestamp;P1;durP1;ratioP1;P2;durP2;ratioP2
61523;SDS011;47393;38.758;-9.164;2022-12-20T00:01:55;63.63;;;23.08;;
61523;SDS011;47393;38.758;-9.164;2022-12-20T00:04:52;58.88;;;22.45;;
61523;SDS011;47393;38.758;-9.164;2022-12-20T00:24:11;57.08;;;21.08;;
61523;SDS011;47393;38.758;-9.164;2022-12-20T00:26:16;55.10;;;19.95;;
61523;SDS011;47393;38.758;-9.164;2022-12-20T00:28:22;52.33;;;20.58;;
61523;SDS011;47393;38.758;-9.164;2022-12-20T00:30:42;66.43;;;21.70;;
61523;SDS011;47393;38.758;-9.164;2022-12-20T00:32:47;59.10;;;21.75;;
61523;SDS011;47393;38.758;-9.164;2022-12-20T00:34:51;59.42;;;20.98;;
61523;SDS011;47393;38.758;-9.164;2022-12-20T00:36:52;65.97;;;21.67;;
61523;SDS011;47393;38.758;-9.164;2022-12-20T00:38:53;67.15;;;21.25;;
61523;SDS011;47393;38.758;-9.164;2022-12-20T00:41:02;57.75;;;19.52;;
61523;SDS011;47393;38.758;-9.164;2022-12-20T00:43:05;65.18;;;22.63;;
61523;SDS011;47393;38.758;-9.164;2022-12-20T00:45:06;68.63;;;21.40;;
61523;SDS011;47393;38.758;-9.164;2022-12-20T00:47:11;71.97;;;22.13;;
61523;SDS011;47393;38.758;-9.164;2022-12-20T00:49:12;70.95;;;21.38;;
61523;SDS011;47393;38.758;-9.164;2022-12-20T00:51:17;75.13;;;21.95;;
61523;SDS011;47393;38.758;-9.164;2022-12-20T00:53:20;69.40;;;20.45;;
61523;SDS011;47393;38.758;-9.164;2022-12-20T00:55:21;70.70;;;20.88;;
61523;SDS011;47393;38.758;-9.164;2022-12-20T00:57:22;68.47;;;19.23;;
61523;SDS011;47393;38.758;-9.164;2022-12-20T00:59:23;58.90;;;18.65;;
61523;SDS011;47393;38.758;-9.164;2022-12-20T01:01:26;67.13;;;19.02;;
61523;SDS011;47393;38.758;-9.164;2022-12-20T01:03:32;68.28;;;17.75;;
61523;SDS011;47393;38.758;-9.164;2022-12-20T01:05:33;52.00;;;16.23;;
61523;SDS011;47393;38.758;-9.164;2022-12-20T01:07:34;61.88;;;16.35;;
61523;SDS011;47393;38.758;-9.164;2022-12-20T01:09:35;55.20;;;16.63;;
61523;SDS011;47393;38.758;-9.164;2022-12-20T01:11:36;49.45;;;15.13;;
61523;SDS011;47393;38.758;-9.164;2022-12-20T01:13:39;50.40;;;14.02;;
61523;SDS011;47393;38.758;-9.164;2022-12-20T01:15:47;56.53;;;15.40;;
61523;SDS011;47393;38.758;-9.164;2022-12-20T01:17:57;41.17;;;14.10;;
61523;SDS011;47393;38.758;-9.164;2022-12-20T01:20:01;44.53;;;11.98;;
61523;SDS011;47393;38.758;-9.164;2022-12-20T01:22:15;40.78;;;12.43;;
61523;SDS011;47393;38.758;-9.164;2022-12-20T01:24:19;39.38;;;12.55;;
61523;SDS011;47393;38.758;-9.164;2022-12-20T01:28:59;30.10;;;9.95;;
61523;SDS011;47393;38.758;-9.164;2022-12-20T01:31:27;38.40;;;11.97;;
61523;SDS011;47393;38.758;-9.164;2022-12-20T01:37:15;53.55;;;13.48;;
61523;SDS011;47393;38.758;-9.164;2022-12-20T01:42:43;54.80;;;13.75;;
61523;SDS011;47393;38.758;-9.164;2022-12-20T01:44:50;56.13;;;14.10;;
61523;SDS011;47393;38.758;-9.164;2022-12-20T01:46:57;49.88;;;11.65;;
61523;SDS011;47393;38.758;-9.164;2022-12-20T01:51:13;27.65;;;8.60;;
61523;SDS011;47393;38.758;-9.164;2022-12-20T01:53:22;22.92;;;7.32;;
61523;SDS011;47393;38.758;-9.164;2022-12-20T01:55:25;14.93;;;5.03;;
61523;SDS011;47393;38.758;-9.164;2022-12-20T01:57:33;13.33;;;4.87;;
61523;SDS011;47393;38.758;-9.164;2022-12-20T01:59:41;17.00;;;5.17;;
61523;SDS011;47393;38.758;-9.164;2022-12-20T02:01:45;16.27;;;4.47;;
61523;SDS011;47393;38.758;-9.164;2022-12-20T02:03:46;20.02;;;5.00;;
61523;SDS011;47393;38.758;-9.164;2022-12-20T02:05:51;14.48;;;3.42;;
61523;SDS011;47393;38.758;-9.164;2022-12-20T02:07:53;18.73;;;3.33;;
61523;SDS011;47393;38.758;-9.164;2022-12-20T02:10:04;10.23;;;2.88;;
61523;SDS011;47393;38.758;-9.164;2022-12-20T02:12:11;11.02;;;3.00;;
61523;SDS011;47393;38.758;-9.164;2022-12-20T02:17:02;12.85;;;3.15;;
61523;SDS011;47393;38.758;-9.164;2022-12-20T02:22:07;28.08;;;5.53;;
61523;SDS011;47393;38.758;-9.164;2022-12-20T02:27:29;21.30;;;4.10;;
61523;SDS011;47393;38.758;-9.164;2022-12-20T02:34:23;10.77;;;3.45;;
61523;SDS011;47393;38.758;-9.164;2022-12-20T02:36:27;18.35;;;4.22;;
61523;SDS011;47393;38.758;-9.164;2022-12-20T02:38:30;18.60;;;4.65;;
61523;SDS011;47393;38.758;-9.164;2022-12-20T02:40:51;32.63;;;6.72;;
61523;SDS011;47393;38.758;-9.164;2022-12-20T02:43:07;29.92;;;6.35;;
61523;SDS011;47393;38.758;-9.164;2022-12-20T02:45:30;44.47;;;8.48;;
61523;SDS011;47393;38.758;-9.164;2022-12-20T02:47:58;49.20;;;9.57;;
61523;SDS011;47393;38.758;-9.164;2022-12-20T02:50:23;59.45;;;11.32;;
61523;SDS011;47393;38.758;-9.164;2022-12-20T02:52:30;61.75;;;11.25;;
61523;SDS011;47393;38.758;-9.164;2022-12-20T02:54:33;84.25;;;12.50;;
61523;SDS011;47393;38.758;-9.164;2022-12-20T02:56:43;65.32;;;11.85;;
61523;SDS011;47393;38.758;-9.164;2022-12-20T02:58:54;61.55;;;12.23;;
61523;SDS011;47393;38.758;-9.164;2022-12-20T03:01:13;63.25;;;12.23;;
61523;SDS011;47393;38.758;-9.164;2022-12-20T03:03:21;70.82;;;13.10;;
61523;SDS011;47393;38.758;-9.164;2022-12-20T03:05:22;60.20;;;12.38;;
61523;SDS011;47393;38.758;-9.164;2022-12-20T03:07:28;59.67;;;11.55;;
61523;SDS011;47393;38.758;-9.164;2022-12-20T03:09:42;62.90;;;11.57;;
61523;SDS011;47393;38.758;-9.164;2022-12-20T03:11:51;63.83;;;12.38;;
61523;SDS011;47393;38.758;-9.164;2022-12-20T03:14:16;62.75;;;11.63;;
61523;SDS011;47393;38.758;-9.164;2022-12-20T03:16:31;71.18;;;12.55;;
61523;SDS011;47393;38.758;-9.164;2022-12-20T03:19:04;74.30;;;11.68;;
61523;SDS011;47393;38.758;-9.164;2022-12-20T03:21:36;54.15;;;10.98;;
61523;SDS011;47393;38.758;-9.164;2022-12-20T03:23:49;52.50;;;10.43;;
61523;SDS011;47393;38.758;-9.164;2022-12-20T03:26:17;46.55;;;9.27;;
61523;SDS011;47393;38.758;-9.164;2022-12-20T03:28:23;38.20;;;9.07;;
61523;SDS011;47393;38.758;-9.164;2022-12-20T03:30:27;50.88;;;9.43;;
61523;SDS011;47393;38.758;-9.164;2022-12-20T03:32:33;49.47;;;8.98;;
61523;SDS011;47393;38.758;-9.164;2022-12-20T03:34:34;61.42;;;9.93;;
61523;SDS011;47393;38.758;-9.164;2022-12-20T03:36:38;57.58;;;9.02;;
61523;SDS011;47393;38.758;-9.164;2022-12-20T03:38:42;55.42;;;8.20;;
61523;SDS011;47393;38.758;-9.164;2022-12-20T03:40:52;61.53;;;9.90;;
61523;SDS011;47393;38.758;-9.164;2022-12-20T03:42:55;60.67;;;9.75;;
61523;SDS011;47393;38.758;-9.164;2022-12-20T03:45:03;55.97;;;9.27;;
61523;SDS011;47393;38.758;-9.164;2022-12-20T03:47:05;52.40;;;10.30;;
61523;SDS011;47393;38.758;-9.164;2022-12-20T03:49:10;48.40;;;10.05;;
61523;SDS011;47393;38.758;-9.164;2022-12-20T03:51:18;62.85;;;10.52;;
61523;SDS011;47393;38.758;-9.164;2022-12-20T03:53:19;58.67;;;10.40;;
61523;SDS011;47393;38.758;-9.164;2022-12-20T03:55:20;65.93;;;12.20;;
61523;SDS011;47393;38.758;-9.164;2022-12-20T03:57:21;61.75;;;11.07;;
61523;SDS011;47393;38.758;-9.164;2022-12-20T03:59:27;89.28;;;11.60;;
61523;SDS011;47393;38.758;-9.164;2022-12-20T04:01:28;77.72;;;12.55;;
61523;SDS011;47393;38.758;-9.164;2022-12-20T04:03:36;77.20;;;13.50;;
61523;SDS011;47393;38.758;-9.164;2022-12-20T04:05:42;73.32;;;11.65;;
61523;SDS011;47393;38.758;-9.164;2022-12-20T04:07:49;82.38;;;12.73;;
61523;SDS011;47393;38.758;-9.164;2022-12-20T04:09:53;75.65;;;11.25;;
61523;SDS011;47393;38.758;-9.164;2022-12-20T04:11:54;78.22;;;12.63;;
61523;SDS011;47393;38.758;-9.164;2022-12-20T04:13:55;85.95;;;12.43;;
61523;SDS011;47393;38.758;-9.164;2022-12-20T04:16:07;86.97;;;13.55;;
61523;SDS011;47393;38.758;-9.164;2022-12-20T04:18:19;71.45;;;13.52;;
61523;SDS011;47393;38.758;-9.164;2022-12-20T04:20:32;73.40;;;12.77;;
61523;SDS011;47393;38.758;-9.164;2022-12-20T04:23:02;85.75;;;13.48;;
61523;SDS011;47393;38.758;-9.164;2022-12-20T04:25:32;81.80;;;12.05;;
61523;SDS011;47393;38.758;-9.164;2022-12-20T04:27:34;74.65;;;13.13;;
61523;SDS011;47393;38.758;-9.164;2022-12-20T04:29:47;71.35;;;12.57;;
61523;SDS011;47393;38.758;-9.164;2022-12-20T04:31:51;78.43;;;11.68;;
61523;SDS011;47393;38.758;-9.164;2022-12-20T04:33:54;70.95;;;13.32;;
61523;SDS011;47393;38.758;-9.164;2022-12-20T04:35:56;71.65;;;12.18;;
61523;SDS011;47393;38.758;-9.164;2022-12-20T04:37:58;78.05;;;10.65;;
61523;SDS011;47393;38.758;-9.164;2022-12-20T04:39:59;87.15;;;12.63;;
61523;SDS011;47393;38.758;-9.164;2022-12-20T04:42:13;71.13;;;12.18;;
61523;SDS011;47393;38.758;-9.164;2022-12-20T04:44:14;70.57;;;10.80;;
61523;SDS011;47393;38.758;-9.164;2022-12-20T04:46:17;77.13;;;11.65;;
61523;SDS011;47393;38.758;-9.164;2022-12-20T04:48:19;72.35;;;11.82;;
61523;SDS011;47393;38.758;-9.164;2022-12-20T04:50:23;83.32;;;12.00;;
61523;SDS011;47393;38.758;-9.164;2022-12-20T04:52:24;73.80;;;12.13;;
61523;SDS011;47393;38.758;-9.164;2022-12-20T04:54:43;63.95;;;10.63;;
61523;SDS011;47393;38.758;-9.164;2022-12-20T04:56:49;71.82;;;11.10;;
61523;SDS011;47393;38.758;-9.164;2022-12-20T04:58:56;81.05;;;12.15;;
61523;SDS011;47393;38.758;-9.164;2022-12-20T05:00:59;75.28;;;11.00;;
61523;SDS011;47393;38.758;-9.164;2022-12-20T05:03:06;77.53;;;11.77;;
61523;SDS011;47393;38.758;-9.164;2022-12-20T05:05:08;74.82;;;11.27;;
61523;SDS011;47393;38.758;-9.164;2022-12-20T05:07:15;93.25;;;13.07;;
61523;SDS011;47393;38.758;-9.164;2022-12-20T05:09:22;72.28;;;10.48;;
61523;SDS011;47393;38.758;-9.164;2022-12-20T05:11:23;77.05;;;12.18;;
61523;SDS011;47393;38.758;-9.164;2022-12-20T05:13:24;73.00;;;11.70;;
61523;SDS011;47393;38.758;-9.164;2022-12-20T05:15:42;80.10;;;11.23;;
61523;SDS011;47393;38.758;-9.164;2022-12-20T05:17:43;69.00;;;11.23;;
61523;SDS011;47393;38.758;-9.164;2022-12-20T05:20:15;77.28;;;12.07;;
61523;SDS011;47393;38.758;-9.164;2022-12-20T05:22:21;70.25;;;10.52;;
61523;SDS011;47393;38.758;-9.164;2022-12-20T05:27:16;80.55;;;11.77;;
61523;SDS011;47393;38.758;-9.164;2022-12-20T05:31:18;78.90;;;9.75;;
61523;SDS011;47393;38.758;-9.164;2022-12-20T05:33:29;78.05;;;11.13;;
61523;SDS011;47393;38.758;-9.164;2022-12-20T05:35:30;59.10;;;10.48;;
61523;SDS011;47393;38.758;-9.164;2022-12-20T05:37:38;72.00;;;11.20;;
61523;SDS011;47393;38.758;-9.164;2022-12-20T05:39:52;80.10;;;12.07;;
61523;SDS011;47393;38.758;-9.164;2022-12-20T05:42:02;69.32;;;11.00;;
61523;SDS011;47393;38.758;-9.164;2022-12-20T05:44:06;85.93;;;12.57;;
61523;SDS011;47393;38.758;-9.164;2022-12-20T05:46:10;75.32;;;12.40;;
61523;SDS011;47393;38.758;-9.164;2022-12-20T05:50:26;80.90;;;11.32;;
61523;SDS011;47393;38.758;-9.164;2022-12-20T05:52:45;64.88;;;10.60;;
61523;SDS011;47393;38.758;-9.164;2022-12-20T05:54:51;52.55;;;10.02;;
61523;SDS011;47393;38.758;-9.164;2022-12-20T05:56:54;68.03;;;10.88;;
61523;SDS011;47393;38.758;-9.164;2022-12-20T05:59:03;76.97;;;12.75;;
61523;SDS011;47393;38.758;-9.164;2022-12-20T06:01:05;69.32;;;11.52;;
61523;SDS011;47393;38.758;-9.164;2022-12-20T06:03:11;66.35;;;10.38;;
61523;SDS011;47393;38.758;-9.164;2022-12-20T06:05:13;79.28;;;11.52;;
61523;SDS011;47393;38.758;-9.164;2022-12-20T06:07:18;71.35;;;10.35;;
61523;SDS011;47393;38.758;-9.164;2022-12-20T06:09:22;65.03;;;11.43;;
61523;SDS011;47393;38.758;-9.164;2022-12-20T06:11:30;63.47;;;11.02;;
61523;SDS011;47393;38.758;-9.164;2022-12-20T06:16:00;54.38;;;9.50;;
61523;SDS011;47393;38.758;-9.164;2022-12-20T06:18:01;60.22;;;11.40;;
61523;SDS011;47393;38.758;-9.164;2022-12-20T06:20:03;56.92;;;10.52;;
61523;SDS011;47393;38.758;-9.164;2022-12-20T06:22:04;67.57;;;11.82;;
61523;SDS011;47393;38.758;-9.164;2022-12-20T06:28:39;86.50;;;13.63;;
61523;SDS011;47393;38.758;-9.164;2022-12-20T06:31:18;78.22;;;12.52;;
61523;SDS011;47393;38.758;-9.164;2022-12-20T06:33:25;67.25;;;12.48;;
61523;SDS011;47393;38.758;-9.164;2022-12-20T06:35:27;80.60;;;13.38;;
61523;SDS011;47393;38.758;-9.164;2022-12-20T06:37:36;89.00;;;14.63;;
61523;SDS011;47393;38.758;-9.164;2022-12-20T06:39:41;83.53;;;12.55;;
61523;SDS011;47393;38.758;-9.164;2022-12-20T06:41:42;74.43;;;11.70;;
61523;SDS011;47393;38.758;-9.164;2022-12-20T06:43:47;67.15;;;10.75;;
61523;SDS011;47393;38.758;-9.164;2022-12-20T06:45:48;72.78;;;12.35;;
61523;SDS011;47393;38.758;-9.164;2022-12-20T06:47:53;74.65;;;12.40;;
61523;SDS011;47393;38.758;-9.164;2022-12-20T06:49:56;60.33;;;12.25;;
61523;SDS011;47393;38.758;-9.164;2022-12-20T06:51:58;50.05;;;9.80;;
61523;SDS011;47393;38.758;-9.164;2022-12-20T06:54:08;57.50;;;10.70;;
61523;SDS011;47393;38.758;-9.164;2022-12-20T06:56:10;55.88;;;10.23;;
61523;SDS011;47393;38.758;-9.164;2022-12-20T06:58:10;53.15;;;9.90;;
61523;SDS011;47393;38.758;-9.164;2022-12-20T07:00:12;54.40;;;9.90;;
61523;SDS011;47393;38.758;-9.164;2022-12-20T07:02:16;55.35;;;10.32;;
61523;SDS011;47393;38.758;-9.164;2022-12-20T07:04:17;60.38;;;10.25;;
61523;SDS011;47393;38.758;-9.164;2022-12-20T07:06:21;41.45;;;9.60;;
61523;SDS011;47393;38.758;-9.164;2022-12-20T07:08:28;49.90;;;9.18;;
61523;SDS011;47393;38.758;-9.164;2022-12-20T07:10:33;56.50;;;10.20;;
61523;SDS011;47393;38.758;-9.164;2022-12-20T07:12:35;69.63;;;11.35;;
61523;SDS011;47393;38.758;-9.164;2022-12-20T07:14:45;63.97;;;11.45;;
61523;SDS011;47393;38.758;-9.164;2022-12-20T07:16:46;61.88;;;12.02;;
61523;SDS011;47393;38.758;-9.164;2022-12-20T07:18:53;61.63;;;10.30;;
61523;SDS011;47393;38.758;-9.164;2022-12-20T07:21:04;50.10;;;9.93;;
61523;SDS011;47393;38.758;-9.164;2022-12-20T07:23:05;58.83;;;10.07;;
61523;SDS011;47393;38.758;-9.164;2022-12-20T07:25:06;56.22;;;11.20;;
61523;SDS011;47393;38.758;-9.164;2022-12-20T07:27:10;59.03;;;9.93;;
61523;SDS011;47393;38.758;-9.164;2022-12-20T07:29:12;57.23;;;10.77;;
61523;SDS011;47393;38.758;-9.164;2022-12-20T07:31:16;55.15;;;11.15;;
61523;SDS011;47393;38.758;-9.164;2022-12-20T07:35:21;72.97;;;12.30;;
61523;SDS011;47393;38.758;-9.164;2022-12-20T07:37:22;71.60;;;12.60;;
61523;SDS011;47393;38.758;-9.164;2022-12-20T07:39:23;91.78;;;16.23;;
61523;SDS011;47393;38.758;-9.164;2022-12-20T07:41:24;64.60;;;11.18;;
61523;SDS011;47393;38.758;-9.164;2022-12-20T07:43:25;37.85;;;8.55;;
61523;SDS011;47393;38.758;-9.164;2022-12-20T07:45:27;38.45;;;7.35;;
61523;SDS011;47393;38.758;-9.164;2022-12-20T07:47:30;23.00;;;6.10;;
61523;SDS011;47393;38.758;-9.164;2022-12-20T07:49:35;20.98;;;4.95;;
61523;SDS011;47393;38.758;-9.164;2022-12-20T07:51:39;18.23;;;4.35;;
61523;SDS011;47393;38.758;-9.164;2022-12-20T07:53:59;28.55;;;6.10;;
61523;SDS011;47393;38.758;-9.164;2022-12-20T07:56:04;21.90;;;5.47;;
61523;SDS011;47393;38.758;-9.164;2022-12-20T07:58:08;29.45;;;6.35;;
61523;SDS011;47393;38.758;-9.164;2022-12-20T08:00:11;39.47;;;7.28;;
61523;SDS011;47393;38.758;-9.164;2022-12-20T08:02:22;24.20;;;6.25;;
61523;SDS011;47393;38.758;-9.164;2022-12-20T08:04:50;23.67;;;5.35;;
61523;SDS011;47393;38.758;-9.164;2022-12-20T08:06:55;35.95;;;6.47;;
61523;SDS011;47393;38.758;-9.164;2022-12-20T08:09:03;24.15;;;5.20;;
61523;SDS011;47393;38.758;-9.164;2022-12-20T08:11:18;21.55;;;5.00;;
61523;SDS011;47393;38.758;-9.164;2022-12-20T08:14:10;10.02;;;3.53;;
61523;SDS011;47393;38.758;-9.164;2022-12-20T08:16:14;19.35;;;3.85;;
61523;SDS011;47393;38.758;-9.164;2022-12-20T08:18:25;13.40;;;3.83;;
61523;SDS011;47393;38.758;-9.164;2022-12-20T08:20:29;15.57;;;3.80;;
61523;SDS011;47393;38.758;-9.164;2022-12-20T08:22:30;27.27;;;4.78;;
61523;SDS011;47393;38.758;-9.164;2022-12-20T08:24:32;35.75;;;6.93;;
61523;SDS011;47393;38.758;-9.164;2022-12-20T08:26:40;37.97;;;7.18;;
61523;SDS011;47393;38.758;-9.164;2022-12-20T08:28:43;34.85;;;7.40;;
61523;SDS011;47393;38.758;-9.164;2022-12-20T08:30:46;20.25;;;5.55;;
61523;SDS011;47393;38.758;-9.164;2022-12-20T08:32:57;35.75;;;6.55;;
61523;SDS011;47393;38.758;-9.164;2022-12-20T08:34:59;41.17;;;7.18;;
61523;SDS011;47393;38.758;-9.164;2022-12-20T08:37:03;46.97;;;9.43;;
61523;SDS011;47393;38.758;-9.164;2022-12-20T08:39:07;63.13;;;10.55;;
61523;SDS011;47393;38.758;-9.164;2022-12-20T08:41:12;67.68;;;9.98;;
61523;SDS011;47393;38.758;-9.164;2022-12-20T08:43:15;76.75;;;11.93;;
61523;SDS011;47393;38.758;-9.164;2022-12-20T08:45:17;78.43;;;12.00;;
61523;SDS011;47393;38.758;-9.164;2022-12-20T08:47:22;78.65;;;12.20;;
61523;SDS011;47393;38.758;-9.164;2022-12-20T08:49:23;71.72;;;12.20;;
61523;SDS011;47393;38.758;-9.164;2022-12-20T08:51:29;89.65;;;13.15;;
61523;SDS011;47393;38.758;-9.164;2022-12-20T08:53:31;73.65;;;12.48;;
61523;SDS011;47393;38.758;-9.164;2022-12-20T08:55:33;94.30;;;13.27;;
61523;SDS011;47393;38.758;-9.164;2022-12-20T08:57:40;93.80;;;13.07;;
61523;SDS011;47393;38.758;-9.164;2022-12-20T08:59:42;81.10;;;13.10;;
61523;SDS011;47393;38.758;-9.164;2022-12-20T09:01:47;79.25;;;11.93;;
61523;SDS011;47393;38.758;-9.164;2022-12-20T09:03:51;74.97;;;11.90;;
61523;SDS011;47393;38.758;-9.164;2022-12-20T09:05:57;69.82;;;11.10;;
61523;SDS011;47393;38.758;-9.164;2022-12-20T09:10:02;59.10;;;8.90;;
61523;SDS011;47393;38.758;-9.164;2022-12-20T09:12:04;59.63;;;10.02;;
61523;SDS011;47393;38.758;-9.164;2022-12-20T09:14:08;63.10;;;11.23;;
61523;SDS011;47393;38.758;-9.164;2022-12-20T09:16:13;64.03;;;10.35;;
61523;SDS011;47393;38.758;-9.164;2022-12-20T09:18:15;65.95;;;9.70;;
61523;SDS011;47393;38.758;-9.164;2022-12-20T09:20:18;58.42;;;9.90;;
61523;SDS011;47393;38.758;-9.164;2022-12-20T09:22:18;55.17;;;9.52;;
61523;SDS011;47393;38.758;-9.164;2022-12-20T09:24:19;60.58;;;9.27;;
61523;SDS011;47393;38.758;-9.164;2022-12-20T09:26:21;65.18;;;9.60;;
61523;SDS011;47393;38.758;-9.164;2022-12-20T09:28:23;56.97;;;9.18;;
61523;SDS011;47393;38.758;-9.164;2022-12-20T09:30:26;69.22;;;9.57;;
61523;SDS011;47393;38.758;-9.164;2022-12-20T09:32:27;69.53;;;10.32;;
61523;SDS011;47393;38.758;-9.164;2022-12-20T09:34:28;62.70;;;10.05;;
61523;SDS011;47393;38.758;-9.164;2022-12-20T09:36:29;55.88;;;9.50;;
61523;SDS011;47393;38.758;-9.164;2022-12-20T09:38:30;54.55;;;8.65;;
61523;SDS011;47393;38.758;-9.164;2022-12-20T09:40:32;63.35;;;9.07;;
61523;SDS011;47393;38.758;-9.164;2022-12-20T09:42:37;51.38;;;8.57;;
61523;SDS011;47393;38.758;-9.164;2022-12-20T09:44:39;58.80;;;9.60;;
61523;SDS011;47393;38.758;-9.164;2022-12-20T09:46:42;61.08;;;8.65;;
61523;SDS011;47393;38.758;-9.164;2022-12-20T09:48:46;77.55;;;9.02;;
61523;SDS011;47393;38.758;-9.164;2022-12-20T09:51:36;74.72;;;8.27;;
61523;SDS011;47393;38.758;-9.164;2022-12-20T09:53:32;58.72;;;9.23;;
61523;SDS011;47393;38.758;-9.164;2022-12-20T09:55:45;73.13;;;10.18;;
61523;SDS011;47393;38.758;-9.164;2022-12-20T10:00:49;71.18;;;10.65;;
61523;SDS011;47393;38.758;-9.164;2022-12-20T10:02:52;91.13;;;11.27;;
61523;SDS011;47393;38.758;-9.164;2022-12-20T10:04:54;80.88;;;11.90;;
61523;SDS011;47393;38.758;-9.164;2022-12-20T10:16:31;92.45;;;13.40;;
61523;SDS011;47393;38.758;-9.164;2022-12-20T10:18:49;93.30;;;14.48;;
61523;SDS011;47393;38.758;-9.164;2022-12-20T10:23:11;55.75;;;10.68;;
61523;SDS011;47393;38.758;-9.164;2022-12-20T10:25:35;68.20;;;9.73;;
61523;SDS011;47393;38.758;-9.164;2022-12-20T10:27:43;60.63;;;10.60;;
61523;SDS011;47393;38.758;-9.164;2022-12-20T10:29:57;60.78;;;10.15;;
61523;SDS011;47393;38.758;-9.164;2022-12-20T10:32:11;61.55;;;10.20;;
61523;SDS011;47393;38.758;-9.164;2022-12-20T10:34:22;69.80;;;11.20;;
61523;SDS011;47393;38.758;-9.164;2022-12-20T10:36:33;70.40;;;10.57;;
61523;SDS011;47393;38.758;-9.164;2022-12-20T10:38:42;67.57;;;9.38;;
61523;SDS011;47393;38.758;-9.164;2022-12-20T10:41:00;69.93;;;10.45;;
61523;SDS011;47393;38.758;-9.164;2022-12-20T10:43:16;64.05;;;11.25;;
61523;SDS011;47393;38.758;-9.164;2022-12-20T10:45:26;62.20;;;9.60;;
61523;SDS011;47393;38.758;-9.164;2022-12-20T10:47:39;60.00;;;9.50;;
61523;SDS011;47393;38.758;-9.164;2022-12-20T10:49:44;59.42;;;10.15;;
61523;SDS011;47393;38.758;-9.164;2022-12-20T10:51:52;44.03;;;8.63;;
61523;SDS011;47393;38.758;-9.164;2022-12-20T10:53:58;51.75;;;9.32;;
61523;SDS011;47393;38.758;-9.164;2022-12-20T10:56:27;59.92;;;9.68;;
61523;SDS011;47393;38.758;-9.164;2022-12-20T10:58:31;46.05;;;8.48;;
61523;SDS011;47393;38.758;-9.164;2022-12-20T11:00:41;52.85;;;8.52;;
61523;SDS011;47393;38.758;-9.164;2022-12-20T11:02:43;50.50;;;8.65;;
61523;SDS011;47393;38.758;-9.164;2022-12-20T11:07:25;60.90;;;9.93;;
61523;SDS011;47393;38.758;-9.164;2022-12-20T11:09:36;54.10;;;9.05;;
61523;SDS011;47393;38.758;-9.164;2022-12-20T11:11:55;44.90;;;8.10;;
61523;SDS011;47393;38.758;-9.164;2022-12-20T11:14:17;55.38;;;9.45;;
61523;SDS011;47393;38.758;-9.164;2022-12-20T11:16:34;41.90;;;8.50;;
61523;SDS011;47393;38.758;-9.164;2022-12-20T11:18:49;43.53;;;8.60;;
61523;SDS011;47393;38.758;-9.164;2022-12-20T11:33:26;35.40;;;5.53;;
61523;SDS011;47393;38.758;-9.164;2022-12-20T11:53:21;41.33;;;8.23;;
61523;SDS011;47393;38.758;-9.164;2022-12-20T11:55:32;46.65;;;8.30;;
61523;SDS011;47393;38.758;-9.164;2022-12-20T11:58:14;39.10;;;8.50;;
61523;SDS011;47393;38.758;-9.164;2022-12-20T12:01:28;37.90;;;7.88;;
61523;SDS011;47393;38.758;-9.164;2022-12-20T12:04:53;32.88;;;7.18;;
61523;SDS011;47393;38.758;-9.164;2022-12-20T12:07:26;35.63;;;6.88;;
61523;SDS011;47393;38.758;-9.164;2022-12-20T12:09:39;37.67;;;6.95;;
61523;SDS011;47393;38.758;-9.164;2022-12-20T12:12:11;34.53;;;6.47;;
61523;SDS011;47393;38.758;-9.164;2022-12-20T12:16:59;36.85;;;6.75;;
61523;SDS011;47393;38.758;-9.164;2022-12-20T12:19:08;37.63;;;7.18;;
61523;SDS011;47393;38.758;-9.164;2022-12-20T12:21:24;35.40;;;6.55;;
61523;SDS011;47393;38.758;-9.164;2022-12-20T12:23:30;24.70;;;5.50;;
61523;SDS011;47393;38.758;-9.164;2022-12-20T12:25:52;28.65;;;5.97;;
61523;SDS011;47393;38.758;-9.164;2022-12-20T12:28:01;33.08;;;5.88;;
61523;SDS011;47393;38.758;-9.164;2022-12-20T12:30:56;24.80;;;5.65;;
61523;SDS011;47393;38.758;-9.164;2022-12-20T12:33:01;28.48;;;5.75;;
61523;SDS011;47393;38.758;-9.164;2022-12-20T12:37:45;32.95;;;6.22;;
61523;SDS011;47393;38.758;-9.164;2022-12-20T12:45:26;42.20;;;8.23;;
61523;SDS011;47393;38.758;-9.164;2022-12-20T12:47:44;41.30;;;8.48;;
61523;SDS011;47393;38.758;-9.164;2022-12-20T12:49:52;38.45;;;8.40;;
61523;SDS011;47393;38.758;-9.164;2022-12-20T12:51:58;39.30;;;8.05;;
61523;SDS011;47393;38.758;-9.164;2022-12-20T12:54:03;36.05;;;7.45;;
61523;SDS011;47393;38.758;-9.164;2022-12-20T13:02:53;33.65;;;7.65;;
61523;SDS011;47393;38.758;-9.164;2022-12-20T13:07:58;38.17;;;6.53;;
61523;SDS011;47393;38.758;-9.164;2022-12-20T13:09:43;27.02;;;7.15;;
61523;SDS011;47393;38.758;-9.164;2022-12-20T13:11:47;29.87;;;7.33;;
61523;SDS011;47393;38.758;-9.164;2022-12-20T13:14:07;28.42;;;7.72;;
61523;SDS011;47393;38.758;-9.164;2022-12-20T13:16:25;27.73;;;6.50;;
61523;SDS011;47393;38.758;-9.164;2022-12-20T13:18:27;27.88;;;6.88;;
61523;SDS011;47393;38.758;-9.164;2022-12-20T13:20:31;21.70;;;6.07;;
61523;SDS011;47393;38.758;-9.164;2022-12-20T13:22:35;25.45;;;6.88;;
61523;SDS011;47393;38.758;-9.164;2022-12-20T13:24:48;32.45;;;7.15;;
61523;SDS011;47393;38.758;-9.164;2022-12-20T13:26:56;23.63;;;6.50;;
61523;SDS011;47393;38.758;-9.164;2022-12-20T13:29:13;22.88;;;6.53;;
61523;SDS011;47393;38.758;-9.164;2022-12-20T13:33:46;23.08;;;6.50;;
61523;SDS011;47393;38.758;-9.164;2022-12-20T13:35:58;22.08;;;5.85;;
61523;SDS011;47393;38.758;-9.164;2022-12-20T13:38:02;21.35;;;5.20;;
61523;SDS011;47393;38.758;-9.164;2022-12-20T13:40:06;17.77;;;5.18;;
61523;SDS011;47393;38.758;-9.164;2022-12-20T13:42:28;17.80;;;4.63;;
61523;SDS011;47393;38.758;-9.164;2022-12-20T13:44:35;17.08;;;4.32;;
61523;SDS011;47393;38.758;-9.164;2022-12-20T13:46:42;24.77;;;4.72;;
61523;SDS011;47393;38.758;-9.164;2022-12-20T13:48:51;21.10;;;5.07;;
61523;SDS011;47393;38.758;-9.164;2022-12-20T13:52:57;17.67;;;4.85;;
61523;SDS011;47393;38.758;-9.164;2022-12-20T13:55:15;20.00;;;5.03;;
61523;SDS011;47393;38.758;-9.164;2022-12-20T13:59:31;13.25;;;4.32;;
61523;SDS011;47393;38.758;-9.164;2022-12-20T14:01:33;18.20;;;4.80;;
61523;SDS011;47393;38.758;-9.164;2022-12-20T14:03:39;18.70;;;5.07;;
61523;SDS011;47393;38.758;-9.164;2022-12-20T14:05:42;33.30;;;6.40;;
61523;SDS011;47393;38.758;-9.164;2022-12-20T14:07:44;19.35;;;4.57;;
61523;SDS011;47393;38.758;-9.164;2022-12-20T14:09:57;27.55;;;5.28;;
61523;SDS011;47393;38.758;-9.164;2022-12-20T14:12:33;16.60;;;4.75;;
61523;SDS011;47393;38.758;-9.164;2022-12-20T14:14:48;14.82;;;4.85;;
61523;SDS011;47393;38.758;-9.164;2022-12-20T14:16:53;26.13;;;5.75;;
61523;SDS011;47393;38.758;-9.164;2022-12-20T14:21:04;26.45;;;5.75;;
61523;SDS011;47393;38.758;-9.164;2022-12-20T14:23:10;17.75;;;5.25;;
61523;SDS011;47393;38.758;-9.164;2022-12-20T14:25:26;24.77;;;6.07;;
61523;SDS011;47393;38.758;-9.164;2022-12-20T14:27:28;19.10;;;5.78;;
61523;SDS011;47393;38.758;-9.164;2022-12-20T14:29:35;17.23;;;4.95;;
61523;SDS011;47393;38.758;-9.164;2022-12-20T14:31:40;16.70;;;4.90;;
61523;SDS011;47393;38.758;-9.164;2022-12-20T14:33:43;17.38;;;5.25;;
61523;SDS011;47393;38.758;-9.164;2022-12-20T14:35:46;21.33;;;4.55;;
61523;SDS011;47393;38.758;-9.164;2022-12-20T14:37:52;23.50;;;5.28;;
61523;SDS011;47393;38.758;-9.164;2022-12-20T14:40:02;17.30;;;5.03;;
61523;SDS011;47393;38.758;-9.164;2022-12-20T14:42:16;21.08;;;5.55;;
61523;SDS011;47393;38.758;-9.164;2022-12-20T14:44:21;16.30;;;4.13;;